sensor_id;sensor_type;location;lat;lon;timestamp;temperature;humidity
18648;DHT22;9453;50.294;18.644;2024-02-26T05:03:37;4.70;99.90
18648;DHT22;9453;50.294;18.644;2024-02-26T05:06:05;4.70;99.90
18648;DHT22;9453;50.294;18.644;2024-02-26T05:08:31;4.70;99.90
18648;DHT22;9453;50.294;18.644;2024-02-26T05:10:59;4.70;99.90
18648;DHT22;9453;50.294;18.644;2024-02-26T05:13:28;4.70;99.90
18648;DHT22;9453;50.294;18.644;2024-02-26T05:15:54;4.70;99.90
18648;DHT22;9453;50.294;18.644;2024-02-26T05:18:22;4.70;99.90
18648;DHT22;9453;50.294;18.644;2024-02-26T05:20:50;4.70;99.90
18648;DHT22;9453;50.294;18.644;2024-02-26T05:23:17;4.70;99.90
18648;DHT22;9453;50.294;18.644;2024-02-26T05:25:44;4.70;99.90
18648;DHT22;9453;50.294;18.644;2024-02-26T05:28:12;4.70;99.90
18648;DHT22;9453;50.294;18.644;2024-02-26T05:30:41;4.80;99.90
18648;DHT22;9453;50.294;18.644;2024-02-26T05:33:08;4.70;99.90
18648;DHT22;9453;50.294;18.644;2024-02-26T05:35:34;4.70;99.90
18648;DHT22;9453;50.294;18.644;2024-02-26T05:38:03;4.70;99.90
18648;DHT22;9453;50.294;18.644;2024-02-26T05:40:30;4.70;99.90
18648;DHT22;9453;50.294;18.644;2024-02-26T05:42:57;4.70;99.90
18648;DHT22;9453;50.294;18.644;2024-02-26T05:45:24;4.70;99.90
18648;DHT22;9453;50.294;18.644;2024-02-26T05:47:50;4.70;99.90
18648;DHT22;9453;50.294;18.644;2024-02-26T05:50:17;4.70;99.90
18648;DHT22;9453;50.294;18.644;2024-02-26T05:52:44;4.80;99.90
18648;DHT22;9453;50.294;18.644;2024-02-26T05:55:12;4.80;99.90
18648;DHT22;9453;50.294;18.644;2024-02-26T05:57:40;4.80;99.90
18648;DHT22;9453;50.294;18.644;2024-02-26T06:00:08;4.70;99.90
18648;DHT22;9453;50.294;18.644;2024-02-26T06:02:35;4.80;99.90
18648;DHT22;9453;50.294;18.644;2024-02-26T06:05:02;4.80;99.90
18648;DHT22;9453;50.294;18.644;2024-02-26T06:07:29;4.80;99.90
18648;DHT22;9453;50.294;18.644;2024-02-26T06:09:56;4.90;99.90
18648;DHT22;9453;50.294;18.644;2024-02-26T06:12:25;4.90;99.90
18648;DHT22;9453;50.294;18.644;2024-02-26T06:14:54;4.90;99.90
18648;DHT22;9453;50.294;18.644;2024-02-26T06:17:21;4.90;99.90
18648;DHT22;9453;50.294;18.644;2024-02-26T06:19:48;5.00;99.90
18648;DHT22;9453;50.294;18.644;2024-02-26T06:22:15;5.00;99.90
18648;DHT22;9453;50.294;18.644;2024-02-26T06:24:42;5.10;99.90
18648;DHT22;9453;50.294;18.644;2024-02-26T06:27:09;5.10;99.90
18648;DHT22;9453;50.294;18.644;2024-02-26T06:29:37;5.10;99.90
18648;DHT22;9453;50.294;18.644;2024-02-26T06:32:05;5.20;99.90
18648;DHT22;9453;50.294;18.644;2024-02-26T06:34:32;5.20;99.90
18648;DHT22;9453;50.294;18.644;2024-02-26T06:36:59;5.20;99.90
18648;DHT22;9453;50.294;18.644;2024-02-26T06:39:26;5.30;99.90
18648;DHT22;9453;50.294;18.644;2024-02-26T06:41:53;5.40;99.90
18648;DHT22;9453;50.294;18.644;2024-02-26T06:44:26;5.40;99.90
18648;DHT22;9453;50.294;18.644;2024-02-26T06:46:58;5.40;99.90
18648;DHT22;9453;50.294;18.644;2024-02-26T06:49:26;5.50;99.90
18648;DHT22;9453;50.294;18.644;2024-02-26T06:51:55;5.60;99.90
18648;DHT22;9453;50.294;18.644;2024-02-26T06:54:22;5.60;99.90
18648;DHT22;9453;50.294;18.644;2024-02-26T06:56:49;5.70;99.90
18648;DHT22;9453;50.294;18.644;2024-02-26T06:59:16;5.70;99.90
18648;DHT22;9453;50.294;18.644;2024-02-26T07:01:51;5.80;99.90
18648;DHT22;9453;50.294;18.644;2024-02-26T07:04:21;5.70;99.90
18648;DHT22;9453;50.294;18.644;2024-02-26T07:06:48;5.90;99.90
18648;DHT22;9453;50.294;18.644;2024-02-26T07:09:15;6.00;99.90
18648;DHT22;9453;50.294;18.644;2024-02-26T07:11:42;6.10;99.90
18648;DHT22;9453;50.294;18.644;2024-02-26T07:14:09;6.20;99.90
18648;DHT22;9453;50.294;18.644;2024-02-26T07:16:36;6.20;99.90
18648;DHT22;9453;50.294;18.644;2024-02-26T07:19:03;6.30;99.90
18648;DHT22;9453;50.294;18.644;2024-02-26T07:21:31;6.40;99.90
18648;DHT22;9453;50.294;18.644;2024-02-26T07:23:59;6.50;99.90
18648;DHT22;9453;50.294;18.644;2024-02-26T07:26:26;6.60;99.90
18648;DHT22;9453;50.294;18.644;2024-02-26T07:28:55;6.80;99.90
18648;DHT22;9453;50.294;18.644;2024-02-26T07:31:22;6.90;99.90
18648;DHT22;9453;50.294;18.644;2024-02-26T07:33:49;7.00;99.90
18648;DHT22;9453;50.294;18.644;2024-02-26T07:36:15;7.20;99.90
18648;DHT22;9453;50.294;18.644;2024-02-26T07:38:44;7.30;99.90
18648;DHT22;9453;50.294;18.644;2024-02-26T07:41:11;7.50;99.10
18648;DHT22;9453;50.294;18.644;2024-02-26T07:43:39;7.70;99.20
18648;DHT22;9453;50.294;18.644;2024-02-26T07:46:06;7.90;98.70
18648;DHT22;9453;50.294;18.644;2024-02-26T07:48:33;8.00;98.10
18648;DHT22;9453;50.294;18.644;2024-02-26T07:51:00;8.10;97.60
18648;DHT22;9453;50.294;18.644;2024-02-26T07:53:28;8.10;96.90
18648;DHT22;9453;50.294;18.644;2024-02-26T07:55:57;8.10;97.00
18648;DHT22;9453;50.294;18.644;2024-02-26T07:58:24;8.10;97.00
18648;DHT22;9453;50.294;18.644;2024-02-26T08:00:50;8.10;96.90
18648;DHT22;9453;50.294;18.644;2024-02-26T08:03:17;8.00;96.90
18648;DHT22;9453;50.294;18.644;2024-02-26T08:05:44;8.00;97.00
18648;DHT22;9453;50.294;18.644;2024-02-26T08:08:11;8.10;97.00
18648;DHT22;9453;50.294;18.644;2024-02-26T08:10:38;8.10;97.00
18648;DHT22;9453;50.294;18.644;2024-02-26T08:13:06;8.10;96.90
18648;DHT22;9453;50.294;18.644;2024-02-26T08:15:34;8.10;96.90
18648;DHT22;9453;50.294;18.644;2024-02-26T08:18:03;8.00;97.00
18648;DHT22;9453;50.294;18.644;2024-02-26T08:20:30;8.10;97.20
18648;DHT22;9453;50.294;18.644;2024-02-26T08:22:58;8.10;97.10
18648;DHT22;9453;50.294;18.644;2024-02-26T08:25:24;8.20;97.20
18648;DHT22;9453;50.294;18.644;2024-02-26T08:27:52;8.30;97.20
18648;DHT22;9453;50.294;18.644;2024-02-26T08:30:20;8.30;97.10
18648;DHT22;9453;50.294;18.644;2024-02-26T08:32:47;8.30;97.10
18648;DHT22;9453;50.294;18.644;2024-02-26T08:35:15;8.30;97.10
18648;DHT22;9453;50.294;18.644;2024-02-26T08:37:44;8.40;97.30
18648;DHT22;9453;50.294;18.644;2024-02-26T08:40:11;8.60;97.30
18648;DHT22;9453;50.294;18.644;2024-02-26T08:42:38;8.70;97.20
18648;DHT22;9453;50.294;18.644;2024-02-26T08:45:06;8.90;97.00
18648;DHT22;9453;50.294;18.644;2024-02-26T08:47:35;9.00;96.60
18648;DHT22;9453;50.294;18.644;2024-02-26T08:50:02;9.20;96.30
18648;DHT22;9453;50.294;18.644;2024-02-26T08:52:30;9.30;95.90
18648;DHT22;9453;50.294;18.644;2024-02-26T08:54:57;9.50;95.70
18648;DHT22;9453;50.294;18.644;2024-02-26T08:57:24;9.60;95.20
18648;DHT22;9453;50.294;18.644;2024-02-26T08:59:52;9.70;95.10
18648;DHT22;9453;50.294;18.644;2024-02-26T09:02:19;9.80;95.00
18648;DHT22;9453;50.294;18.644;2024-02-26T09:04:47;10.00;93.90
18648;DHT22;9453;50.294;18.644;2024-02-26T09:07:16;10.10;93.50
18648;DHT22;9453;50.294;18.644;2024-02-26T09:09:43;10.30;93.60
18648;DHT22;9453;50.294;18.644;2024-02-26T09:12:10;10.40;93.40
18648;DHT22;9453;50.294;18.644;2024-02-26T09:14:37;10.50;92.90
18648;DHT22;9453;50.294;18.644;2024-02-26T09:17:04;10.60;92.70
18648;DHT22;9453;50.294;18.644;2024-02-26T09:19:31;10.70;92.60
18648;DHT22;9453;50.294;18.644;2024-02-26T09:21:59;10.90;92.20
18648;DHT22;9453;50.294;18.644;2024-02-26T09:24:27;11.10;91.90
18648;DHT22;9453;50.294;18.644;2024-02-26T09:26:53;11.10;92.00
18648;DHT22;9453;50.294;18.644;2024-02-26T09:29:20;11.20;91.50
18648;DHT22;9453;50.294;18.644;2024-02-26T09:31:49;11.30;91.10
18648;DHT22;9453;50.294;18.644;2024-02-26T09:34:15;11.40;91.00
18648;DHT22;9453;50.294;18.644;2024-02-26T09:36:43;11.50;90.90
18648;DHT22;9453;50.294;18.644;2024-02-26T09:39:11;11.60;90.60
18648;DHT22;9453;50.294;18.644;2024-02-26T09:41:40;11.80;90.70
18648;DHT22;9453;50.294;18.644;2024-02-26T09:44:07;11.90;90.50
18648;DHT22;9453;50.294;18.644;2024-02-26T09:46:35;12.00;90.30
18648;DHT22;9453;50.294;18.644;2024-02-26T09:49:02;12.20;90.30
18648;DHT22;9453;50.294;18.644;2024-02-26T09:51:29;12.20;89.70
18648;DHT22;9453;50.294;18.644;2024-02-26T09:54:00;12.40;89.00
18648;DHT22;9453;50.294;18.644;2024-02-26T09:56:28;12.50;89.40
18648;DHT22;9453;50.294;18.644;2024-02-26T09:58:58;12.70;87.90
18648;DHT22;9453;50.294;18.644;2024-02-26T10:01:25;12.70;86.80
18648;DHT22;9453;50.294;18.644;2024-02-26T10:03:55;12.80;86.80
18648;DHT22;9453;50.294;18.644;2024-02-26T10:06:24;12.80;86.10
18648;DHT22;9453;50.294;18.644;2024-02-26T10:08:51;12.80;85.70
18648;DHT22;9453;50.294;18.644;2024-02-26T10:11:20;12.80;85.30
18648;DHT22;9453;50.294;18.644;2024-02-26T10:13:50;12.90;85.60
18648;DHT22;9453;50.294;18.644;2024-02-26T10:16:16;13.00;85.30
18648;DHT22;9453;50.294;18.644;2024-02-26T10:18:47;13.10;85.00
18648;DHT22;9453;50.294;18.644;2024-02-26T10:21:16;13.30;84.60
18648;DHT22;9453;50.294;18.644;2024-02-26T10:23:44;13.40;84.40
18648;DHT22;9453;50.294;18.644;2024-02-26T10:26:12;13.70;84.00
18648;DHT22;9453;50.294;18.644;2024-02-26T10:28:39;13.90;83.00
18648;DHT22;9453;50.294;18.644;2024-02-26T10:31:08;14.00;81.60
18648;DHT22;9453;50.294;18.644;2024-02-26T10:33:36;14.30;81.30
18648;DHT22;9453;50.294;18.644;2024-02-26T10:36:04;14.50;81.20
18648;DHT22;9453;50.294;18.644;2024-02-26T10:38:32;14.70;80.50
18648;DHT22;9453;50.294;18.644;2024-02-26T10:40:59;14.80;78.50
18648;DHT22;9453;50.294;18.644;2024-02-26T10:43:26;14.70;77.60
18648;DHT22;9453;50.294;18.644;2024-02-26T10:45:55;14.70;77.50
18648;DHT22;9453;50.294;18.644;2024-02-26T10:48:23;14.80;77.80
18648;DHT22;9453;50.294;18.644;2024-02-26T10:50:50;14.80;77.20
18648;DHT22;9453;50.294;18.644;2024-02-26T10:53:20;14.90;77.30
18648;DHT22;9453;50.294;18.644;2024-02-26T10:55:51;14.80;76.70
18648;DHT22;9453;50.294;18.644;2024-02-26T10:58:19;14.80;76.90
18648;DHT22;9453;50.294;18.644;2024-02-26T11:00:48;14.80;76.20
18648;DHT22;9453;50.294;18.644;2024-02-26T11:03:16;14.70;76.30
18648;DHT22;9453;50.294;18.644;2024-02-26T11:05:47;14.80;76.70
18648;DHT22;9453;50.294;18.644;2024-02-26T11:08:15;14.80;76.60
18648;DHT22;9453;50.294;18.644;2024-02-26T11:10:42;14.80;76.20
18648;DHT22;9453;50.294;18.644;2024-02-26T11:13:12;14.80;75.90
18648;DHT22;9453;50.294;18.644;2024-02-26T11:15:40;14.70;75.70
18648;DHT22;9453;50.294;18.644;2024-02-26T11:18:08;14.60;76.20
18648;DHT22;9453;50.294;18.644;2024-02-26T11:20:38;14.70;77.10
18648;DHT22;9453;50.294;18.644;2024-02-26T11:23:07;14.80;77.40
18648;DHT22;9453;50.294;18.644;2024-02-26T11:25:35;14.80;76.90
18648;DHT22;9453;50.294;18.644;2024-02-26T11:28:05;14.90;77.00
18648;DHT22;9453;50.294;18.644;2024-02-26T11:30:35;15.00;76.90
18648;DHT22;9453;50.294;18.644;2024-02-26T11:33:05;14.90;76.50
18648;DHT22;9453;50.294;18.644;2024-02-26T11:35:34;14.90;76.60
18648;DHT22;9453;50.294;18.644;2024-02-26T11:38:01;14.90;77.00
18648;DHT22;9453;50.294;18.644;2024-02-26T11:40:32;14.80;77.00
18648;DHT22;9453;50.294;18.644;2024-02-26T11:42:59;14.70;77.20
18648;DHT22;9453;50.294;18.644;2024-02-26T11:45:48;14.70;77.30
18648;DHT22;9453;50.294;18.644;2024-02-26T11:48:16;14.60;77.50
18648;DHT22;9453;50.294;18.644;2024-02-26T11:50:47;14.80;78.20
18648;DHT22;9453;50.294;18.644;2024-02-26T11:53:25;14.90;78.00
18648;DHT22;9453;50.294;18.644;2024-02-26T11:56:21;15.00;77.40
18648;DHT22;9453;50.294;18.644;2024-02-26T11:58:53;15.20;77.20
18648;DHT22;9453;50.294;18.644;2024-02-26T12:01:42;15.30;76.80
18648;DHT22;9453;50.294;18.644;2024-02-26T12:04:14;15.40;76.40
18648;DHT22;9453;50.294;18.644;2024-02-26T12:06:46;15.60;76.10
18648;DHT22;9453;50.294;18.644;2024-02-26T12:09:16;15.70;74.80
18648;DHT22;9453;50.294;18.644;2024-02-26T12:11:58;15.80;74.90
18648;DHT22;9453;50.294;18.644;2024-02-26T12:14:25;16.00;75.00
18648;DHT22;9453;50.294;18.644;2024-02-26T12:16:53;16.20;74.90
18648;DHT22;9453;50.294;18.644;2024-02-26T12:19:21;16.40;74.60
18648;DHT22;9453;50.294;18.644;2024-02-26T12:21:51;16.60;73.90
18648;DHT22;9453;50.294;18.644;2024-02-26T12:24:19;16.80;73.60
18648;DHT22;9453;50.294;18.644;2024-02-26T12:26:46;16.60;71.30
18648;DHT22;9453;50.294;18.644;2024-02-26T12:29:14;16.50;72.00
18648;DHT22;9453;50.294;18.644;2024-02-26T12:31:41;16.30;71.60
18648;DHT22;9453;50.294;18.644;2024-02-26T12:34:09;16.30;72.50
18648;DHT22;9453;50.294;18.644;2024-02-26T12:36:36;16.30;72.60
18648;DHT22;9453;50.294;18.644;2024-02-26T12:39:04;16.30;72.70
18648;DHT22;9453;50.294;18.644;2024-02-26T12:41:32;16.20;73.70
18648;DHT22;9453;50.294;18.644;2024-02-26T12:43:59;16.20;72.30
18648;DHT22;9453;50.294;18.644;2024-02-26T12:46:27;16.10;72.40
18648;DHT22;9453;50.294;18.644;2024-02-26T12:48:56;16.10;72.70
18648;DHT22;9453;50.294;18.644;2024-02-26T12:51:24;16.10;72.20
18648;DHT22;9453;50.294;18.644;2024-02-26T12:53:52;16.10;72.60
18648;DHT22;9453;50.294;18.644;2024-02-26T12:56:19;16.10;73.00
18648;DHT22;9453;50.294;18.644;2024-02-26T12:58:47;16.10;72.90
18648;DHT22;9453;50.294;18.644;2024-02-26T13:01:15;16.10;73.60
18648;DHT22;9453;50.294;18.644;2024-02-26T13:03:44;16.10;73.70
18648;DHT22;9453;50.294;18.644;2024-02-26T13:06:11;16.10;73.20
18648;DHT22;9453;50.294;18.644;2024-02-26T13:08:38;16.00;73.20
18648;DHT22;9453;50.294;18.644;2024-02-26T13:11:06;15.90;73.20
18648;DHT22;9453;50.294;18.644;2024-02-26T13:13:33;15.80;73.60
18648;DHT22;9453;50.294;18.644;2024-02-26T13:16:04;15.90;73.80
18648;DHT22;9453;50.294;18.644;2024-02-26T13:18:33;15.80;73.50
18648;DHT22;9453;50.294;18.644;2024-02-26T13:21:10;15.70;73.30
18648;DHT22;9453;50.294;18.644;2024-02-26T13:23:38;15.70;74.10
18648;DHT22;9453;50.294;18.644;2024-02-26T13:26:05;15.50;74.50
18648;DHT22;9453;50.294;18.644;2024-02-26T13:28:32;15.60;74.40
18648;DHT22;9453;50.294;18.644;2024-02-26T13:31:00;15.60;74.50
18648;DHT22;9453;50.294;18.644;2024-02-26T13:33:29;15.60;74.50
18648;DHT22;9453;50.294;18.644;2024-02-26T13:35:57;15.60;74.50
18648;DHT22;9453;50.294;18.644;2024-02-26T13:38:26;15.60;74.80
18648;DHT22;9453;50.294;18.644;2024-02-26T13:40:54;15.50;74.60
18648;DHT22;9453;50.294;18.644;2024-02-26T13:43:21;15.50;74.70
18648;DHT22;9453;50.294;18.644;2024-02-26T13:45:48;15.40;74.80
18648;DHT22;9453;50.294;18.644;2024-02-26T13:48:15;15.40;75.10
18648;DHT22;9453;50.294;18.644;2024-02-26T13:50:43;15.40;75.40
18648;DHT22;9453;50.294;18.644;2024-02-26T13:53:11;15.30;75.00
18648;DHT22;9453;50.294;18.644;2024-02-26T13:55:40;15.30;75.10
18648;DHT22;9453;50.294;18.644;2024-02-26T13:58:09;15.20;75.40
18648;DHT22;9453;50.294;18.644;2024-02-26T14:00:37;15.10;75.60
18648;DHT22;9453;50.294;18.644;2024-02-26T14:03:04;15.10;75.60
18648;DHT22;9453;50.294;18.644;2024-02-26T14:05:31;15.10;75.60
18648;DHT22;9453;50.294;18.644;2024-02-26T14:07:58;15.10;75.70
18648;DHT22;9453;50.294;18.644;2024-02-26T14:10:25;15.00;75.90
18648;DHT22;9453;50.294;18.644;2024-02-26T14:12:54;14.90;76.00
18648;DHT22;9453;50.294;18.644;2024-02-26T14:15:20;15.00;76.30
18648;DHT22;9453;50.294;18.644;2024-02-26T14:17:49;14.90;76.40
18648;DHT22;9453;50.294;18.644;2024-02-26T14:20:20;14.80;76.60
18648;DHT22;9453;50.294;18.644;2024-02-26T14:22:47;14.80;76.90
18648;DHT22;9453;50.294;18.644;2024-02-26T14:25:14;14.80;77.20
18648;DHT22;9453;50.294;18.644;2024-02-26T14:27:41;14.80;77.00
18648;DHT22;9453;50.294;18.644;2024-02-26T14:30:11;14.90;77.20
18648;DHT22;9453;50.294;18.644;2024-02-26T14:32:38;14.90;77.10
18648;DHT22;9453;50.294;18.644;2024-02-26T14:35:06;14.90;77.30
18648;DHT22;9453;50.294;18.644;2024-02-26T14:37:34;14.80;77.00
18648;DHT22;9453;50.294;18.644;2024-02-26T14:40:01;14.80;77.00
18648;DHT22;9453;50.294;18.644;2024-02-26T14:42:29;14.80;77.40
18648;DHT22;9453;50.294;18.644;2024-02-26T14:44:56;14.80;77.20
18648;DHT22;9453;50.294;18.644;2024-02-26T14:47:24;14.80;77.40
18648;DHT22;9453;50.294;18.644;2024-02-26T14:49:51;14.80;77.20
18648;DHT22;9453;50.294;18.644;2024-02-26T14:52:18;14.80;77.40
18648;DHT22;9453;50.294;18.644;2024-02-26T14:54:45;14.70;77.50
18648;DHT22;9453;50.294;18.644;2024-02-26T14:57:12;14.70;77.40
18648;DHT22;9453;50.294;18.644;2024-02-26T14:59:39;14.70;77.50
18648;DHT22;9453;50.294;18.644;2024-02-26T15:02:07;14.70;77.70
18648;DHT22;9453;50.294;18.644;2024-02-26T15:04:37;14.60;77.80
18648;DHT22;9453;50.294;18.644;2024-02-26T15:07:06;14.60;78.00
18648;DHT22;9453;50.294;18.644;2024-02-26T15:09:33;14.50;78.20
18648;DHT22;9453;50.294;18.644;2024-02-26T15:12:01;14.50;78.50
18648;DHT22;9453;50.294;18.644;2024-02-26T15:14:28;14.40;78.90
18648;DHT22;9453;50.294;18.644;2024-02-26T15:16:55;14.30;79.10
18648;DHT22;9453;50.294;18.644;2024-02-26T15:19:22;14.20;79.30
18648;DHT22;9453;50.294;18.644;2024-02-26T15:21:50;14.20;79.80
18648;DHT22;9453;50.294;18.644;2024-02-26T15:24:17;14.10;80.20
18648;DHT22;9453;50.294;18.644;2024-02-26T15:26:44;14.00;80.50
18648;DHT22;9453;50.294;18.644;2024-02-26T15:29:11;13.90;80.60
18648;DHT22;9453;50.294;18.644;2024-02-26T15:31:38;13.90;81.00
18648;DHT22;9453;50.294;18.644;2024-02-26T15:34:05;13.80;81.30
18648;DHT22;9453;50.294;18.644;2024-02-26T15:36:33;13.70;82.00
18648;DHT22;9453;50.294;18.644;2024-02-26T15:39:01;13.70;82.30
18648;DHT22;9453;50.294;18.644;2024-02-26T15:41:30;13.60;82.50
18648;DHT22;9453;50.294;18.644;2024-02-26T15:43:57;13.60;82.70
18648;DHT22;9453;50.294;18.644;2024-02-26T15:46:25;13.50;82.70
18648;DHT22;9453;50.294;18.644;2024-02-26T15:48:53;13.50;82.70
18648;DHT22;9453;50.294;18.644;2024-02-26T15:51:20;13.40;83.40
18648;DHT22;9453;50.294;18.644;2024-02-26T15:53:47;13.30;83.70
18648;DHT22;9453;50.294;18.644;2024-02-26T15:56:16;13.20;83.90
18648;DHT22;9453;50.294;18.644;2024-02-26T15:58:43;13.20;84.10
18648;DHT22;9453;50.294;18.644;2024-02-26T16:01:10;13.10;84.60
18648;DHT22;9453;50.294;18.644;2024-02-26T16:03:38;13.00;84.80
18648;DHT22;9453;50.294;18.644;2024-02-26T16:06:06;13.00;85.30
18648;DHT22;9453;50.294;18.644;2024-02-26T16:08:35;13.00;85.70
18648;DHT22;9453;50.294;18.644;2024-02-26T16:11:02;12.90;85.90
18648;DHT22;9453;50.294;18.644;2024-02-26T16:13:31;12.80;86.20
18648;DHT22;9453;50.294;18.644;2024-02-26T16:16:01;12.70;86.70
18648;DHT22;9453;50.294;18.644;2024-02-26T16:18:29;12.70;87.10
18648;DHT22;9453;50.294;18.644;2024-02-26T16:20:57;12.70;88.00
18648;DHT22;9453;50.294;18.644;2024-02-26T16:23:24;12.60;88.00
18648;DHT22;9453;50.294;18.644;2024-02-26T16:25:51;12.50;88.30
18648;DHT22;9453;50.294;18.644;2024-02-26T16:28:18;12.50;88.90
18648;DHT22;9453;50.294;18.644;2024-02-26T16:30:48;12.40;89.30
18648;DHT22;9453;50.294;18.644;2024-02-26T16:33:15;12.40;89.90
18648;DHT22;9453;50.294;18.644;2024-02-26T16:35:43;12.30;89.90
18648;DHT22;9453;50.294;18.644;2024-02-26T16:38:10;12.30;90.20
18648;DHT22;9453;50.294;18.644;2024-02-26T16:40:40;12.20;90.30
18648;DHT22;9453;50.294;18.644;2024-02-26T16:43:07;12.20;90.50
18648;DHT22;9453;50.294;18.644;2024-02-26T16:45:34;12.10;90.60
18648;DHT22;9453;50.294;18.644;2024-02-26T16:48:03;12.10;90.80
18648;DHT22;9453;50.294;18.644;2024-02-26T16:50:30;12.00;90.90
18648;DHT22;9453;50.294;18.644;2024-02-26T16:52:57;12.00;91.00
18648;DHT22;9453;50.294;18.644;2024-02-26T16:55:24;12.00;91.30
18648;DHT22;9453;50.294;18.644;2024-02-26T16:57:53;11.90;91.40
18648;DHT22;9453;50.294;18.644;2024-02-26T17:00:21;11.90;91.50
18648;DHT22;9453;50.294;18.644;2024-02-26T17:02:47;11.80;91.60
18648;DHT22;9453;50.294;18.644;2024-02-26T17:05:16;11.80;91.80
18648;DHT22;9453;50.294;18.644;2024-02-26T17:07:43;11.80;91.90
18648;DHT22;9453;50.294;18.644;2024-02-26T17:10:12;11.70;92.10
18648;DHT22;9453;50.294;18.644;2024-02-26T17:12:39;11.70;92.20
18648;DHT22;9453;50.294;18.644;2024-02-26T17:15:06;11.70;92.40
18648;DHT22;9453;50.294;18.644;2024-02-26T17:17:34;11.70;92.50
18648;DHT22;9453;50.294;18.644;2024-02-26T17:20:02;11.60;92.60
18648;DHT22;9453;50.294;18.644;2024-02-26T17:22:31;11.60;92.70
18648;DHT22;9453;50.294;18.644;2024-02-26T17:24:58;11.60;92.90
18648;DHT22;9453;50.294;18.644;2024-02-26T17:27:25;11.50;92.90
18648;DHT22;9453;50.294;18.644;2024-02-26T17:29:52;11.50;93.10
18648;DHT22;9453;50.294;18.644;2024-02-26T17:32:19;11.50;93.20
18648;DHT22;9453;50.294;18.644;2024-02-26T17:34:46;11.40;93.50
18648;DHT22;9453;50.294;18.644;2024-02-26T17:37:14;11.40;93.10
18648;DHT22;9453;50.294;18.644;2024-02-26T17:39:45;11.40;93.20
18648;DHT22;9453;50.294;18.644;2024-02-26T17:42:12;11.40;93.50
18648;DHT22;9453;50.294;18.644;2024-02-26T17:44:42;11.40;93.60
18648;DHT22;9453;50.294;18.644;2024-02-26T17:47:09;11.30;93.80
18648;DHT22;9453;50.294;18.644;2024-02-26T17:49:38;11.30;93.80
18648;DHT22;9453;50.294;18.644;2024-02-26T17:52:05;11.30;93.90
18648;DHT22;9453;50.294;18.644;2024-02-26T17:54:32;11.30;94.00
18648;DHT22;9453;50.294;18.644;2024-02-26T17:57:01;11.30;94.00
18648;DHT22;9453;50.294;18.644;2024-02-26T17:59:28;11.30;94.10
18648;DHT22;9453;50.294;18.644;2024-02-26T18:01:57;11.20;94.20
18648;DHT22;9453;50.294;18.644;2024-02-26T18:04:24;11.20;94.20
18648;DHT22;9453;50.294;18.644;2024-02-26T18:06:51;11.20;94.30
18648;DHT22;9453;50.294;18.644;2024-02-26T18:09:18;11.20;94.30
18648;DHT22;9453;50.294;18.644;2024-02-26T18:11:45;11.10;94.40
18648;DHT22;9453;50.294;18.644;2024-02-26T18:14:13;11.10;94.40
18648;DHT22;9453;50.294;18.644;2024-02-26T18:16:44;11.00;94.50
18648;DHT22;9453;50.294;18.644;2024-02-26T18:19:12;11.00;94.60
18648;DHT22;9453;50.294;18.644;2024-02-26T18:21:40;11.00;94.60
18648;DHT22;9453;50.294;18.644;2024-02-26T18:24:07;11.00;94.70
18648;DHT22;9453;50.294;18.644;2024-02-26T18:26:34;11.00;94.80
18648;DHT22;9453;50.294;18.644;2024-02-26T18:29:01;10.90;94.70
18648;DHT22;9453;50.294;18.644;2024-02-26T18:31:29;10.90;94.80
18648;DHT22;9453;50.294;18.644;2024-02-26T18:33:56;10.80;94.80
18648;DHT22;9453;50.294;18.644;2024-02-26T18:36:23;10.80;94.80
18648;DHT22;9453;50.294;18.644;2024-02-26T18:38:50;10.80;94.90
18648;DHT22;9453;50.294;18.644;2024-02-26T18:41:18;10.80;94.90
18648;DHT22;9453;50.294;18.644;2024-02-26T18:43:45;10.70;95.00
18648;DHT22;9453;50.294;18.644;2024-02-26T18:46:12;10.70;95.10
18648;DHT22;9453;50.294;18.644;2024-02-26T18:48:41;10.70;95.20
18648;DHT22;9453;50.294;18.644;2024-02-26T18:51:08;10.60;95.20
18648;DHT22;9453;50.294;18.644;2024-02-26T18:53:36;10.60;95.30
18648;DHT22;9453;50.294;18.644;2024-02-26T18:56:05;10.60;95.40
18648;DHT22;9453;50.294;18.644;2024-02-26T18:58:32;10.50;95.40
18648;DHT22;9453;50.294;18.644;2024-02-26T19:00:59;10.50;95.60
18648;DHT22;9453;50.294;18.644;2024-02-26T19:03:26;10.60;95.60
18648;DHT22;9453;50.294;18.644;2024-02-26T19:05:54;10.50;95.60
18648;DHT22;9453;50.294;18.644;2024-02-26T19:08:21;10.50;95.60
18648;DHT22;9453;50.294;18.644;2024-02-26T19:10:48;10.50;95.60
18648;DHT22;9453;50.294;18.644;2024-02-26T19:13:15;10.50;95.70
18648;DHT22;9453;50.294;18.644;2024-02-26T19:15:42;10.50;95.80
18648;DHT22;9453;50.294;18.644;2024-02-26T19:18:11;10.50;96.20
18648;DHT22;9453;50.294;18.644;2024-02-26T19:20:38;10.40;95.90
18648;DHT22;9453;50.294;18.644;2024-02-26T19:23:06;10.50;96.10
18648;DHT22;9453;50.294;18.644;2024-02-26T19:25:33;10.40;96.20
18648;DHT22;9453;50.294;18.644;2024-02-26T19:28:00;10.50;96.30
18648;DHT22;9453;50.294;18.644;2024-02-26T19:30:27;10.60;96.40
18648;DHT22;9453;50.294;18.644;2024-02-26T19:32:54;10.60;96.40
18648;DHT22;9453;50.294;18.644;2024-02-26T19:35:21;10.70;96.40
18648;DHT22;9453;50.294;18.644;2024-02-26T19:37:48;10.70;96.30
18648;DHT22;9453;50.294;18.644;2024-02-26T19:40:16;10.70;96.20
18648;DHT22;9453;50.294;18.644;2024-02-26T19:42:43;10.70;96.20
18648;DHT22;9453;50.294;18.644;2024-02-26T19:45:10;10.70;96.10
18648;DHT22;9453;50.294;18.644;2024-02-26T19:47:37;10.50;96.10
18648;DHT22;9453;50.294;18.644;2024-02-26T19:50:06;10.60;96.10
18648;DHT22;9453;50.294;18.644;2024-02-26T19:52:33;10.50;96.20
18648;DHT22;9453;50.294;18.644;2024-02-26T19:55:04;10.40;96.30
18648;DHT22;9453;50.294;18.644;2024-02-26T19:57:32;10.30;96.20
18648;DHT22;9453;50.294;18.644;2024-02-26T20:00:00;10.30;96.60
18648;DHT22;9453;50.294;18.644;2024-02-26T20:02:27;10.20;96.70
18648;DHT22;9453;50.294;18.644;2024-02-26T20:04:54;10.10;96.90
18648;DHT22;9453;50.294;18.644;2024-02-26T20:07:20;10.10;97.00
18648;DHT22;9453;50.294;18.644;2024-02-26T20:09:48;10.10;97.20
18648;DHT22;9453;50.294;18.644;2024-02-26T20:12:15;10.00;97.30
18648;DHT22;9453;50.294;18.644;2024-02-26T20:14:43;9.90;98.00
18648;DHT22;9453;50.294;18.644;2024-02-26T20:17:10;9.90;98.30
18648;DHT22;9453;50.294;18.644;2024-02-26T20:19:40;9.80;98.30
18648;DHT22;9453;50.294;18.644;2024-02-26T20:22:08;9.70;98.50
18648;DHT22;9453;50.294;18.644;2024-02-26T20:24:36;9.70;98.70
18648;DHT22;9453;50.294;18.644;2024-02-26T20:27:06;9.70;99.00
18648;DHT22;9453;50.294;18.644;2024-02-26T20:29:33;9.70;99.20
18648;DHT22;9453;50.294;18.644;2024-02-26T20:32:01;9.60;99.20
18648;DHT22;9453;50.294;18.644;2024-02-26T20:34:28;9.60;99.50
18648;DHT22;9453;50.294;18.644;2024-02-26T20:36:55;9.60;99.60
18648;DHT22;9453;50.294;18.644;2024-02-26T20:39:22;9.50;99.60
18648;DHT22;9453;50.294;18.644;2024-02-26T20:41:49;9.50;99.80